createdAt,value
2022-12-25T00:02:13.389Z,34.79
2022-12-25T00:04:41.424Z,35.08
2022-12-25T00:07:09.300Z,34.89
2022-12-25T00:09:37.218Z,35.35
2022-12-25T00:12:05.233Z,34.82
2022-12-25T00:14:34.464Z,35.04
2022-12-25T00:17:02.440Z,34.80
2022-12-25T00:19:30.351Z,34.88
2022-12-25T00:21:58.231Z,35.30
2022-12-25T00:24:26.153Z,35.03
2022-12-25T00:26:54.044Z,35.30
2022-12-25T00:29:21.918Z,35.26
2022-12-25T00:31:51.254Z,34.86
2022-12-25T00:34:19.250Z,35.30
2022-12-25T00:36:47.142Z,35.09
2022-12-25T00:39:15.032Z,35.17
2022-12-25T00:42:00.107Z,35.07
2022-12-25T00:44:28.015Z,35.33
2022-12-25T00:46:57.317Z,35.25
2022-12-25T00:49:25.298Z,35.44
2022-12-25T00:51:53.282Z,34.73
2022-12-25T00:54:21.197Z,35.12
2022-12-25T00:56:49.081Z,35.08
2022-12-25T00:59:16.960Z,35.09
2022-12-25T01:01:44.905Z,35.01
2022-12-25T01:04:14.331Z,34.80
2022-12-25T01:06:42.251Z,34.79
2022-12-25T01:09:38.821Z,35.19
2022-12-25T01:12:06.981Z,34.78
2022-12-25T01:14:34.862Z,34.88
2022-12-25T01:17:02.769Z,34.96
2022-12-25T01:37:08.263Z,35.28
2022-12-25T01:39:36.184Z,35.16
2022-12-25T01:42:04.143Z,34.70
2022-12-25T01:45:09.632Z,35.28
2022-12-25T01:47:37.497Z,34.97
2022-12-25T01:50:06.309Z,34.98
2022-12-25T01:52:35.615Z,35.26
2022-12-25T01:55:04.374Z,35.20
2022-12-25T01:57:33.473Z,35.04
2022-12-25T02:00:01.419Z,34.77
2022-12-25T02:02:29.503Z,34.90
2022-12-25T02:04:59.882Z,35.30
2022-12-25T02:07:28.616Z,34.90
2022-12-25T02:09:57.892Z,34.85
2022-12-25T02:12:26.900Z,35.19
2022-12-25T02:15:01.155Z,34.90
2022-12-25T02:17:34.071Z,34.95
2022-12-25T02:20:18.188Z,35.18
2022-12-25T02:22:51.529Z,34.96
2022-12-25T02:25:30.580Z,34.78
2022-12-25T02:28:14.451Z,34.73
2022-12-25T02:30:44.153Z,35.08
2022-12-25T02:33:32.624Z,34.75
2022-12-25T02:36:00.566Z,34.71
2022-12-25T02:38:32.639Z,35.20
2022-12-25T02:40:59.991Z,35.07
2022-12-25T02:43:48.284Z,35.25
2022-12-25T02:46:35.042Z,34.89
2022-12-25T02:49:21.817Z,35.01
2022-12-25T02:52:09.544Z,35.15
2022-12-25T02:54:55.412Z,34.95
2022-12-25T02:57:50.148Z,35.33
2022-12-25T03:00:37.121Z,35.22
2022-12-25T03:03:23.030Z,34.99
2022-12-25T03:06:08.247Z,34.79
2022-12-25T03:08:37.697Z,35.23
2022-12-25T03:11:24.705Z,35.32
2022-12-25T03:13:54.940Z,34.98
2022-12-25T03:16:41.883Z,34.98
2022-12-25T03:19:23.752Z,34.72
2022-12-25T03:22:09.085Z,34.98
2022-12-25T03:24:54.412Z,34.78
2022-12-25T03:27:22.334Z,35.01
2022-12-25T03:30:08.784Z,35.02
2022-12-25T03:32:40.108Z,35.21
2022-12-25T03:35:23.221Z,34.90
2022-12-25T03:38:13.163Z,35.03
2022-12-25T03:41:06.925Z,35.05
2022-12-25T03:43:57.710Z,34.99
2022-12-25T03:46:43.655Z,34.93
2022-12-25T03:49:33.160Z,34.87
2022-12-25T03:52:18.491Z,34.76
2022-12-25T03:55:03.761Z,35.26
2022-12-25T03:57:52.147Z,35.22
2022-12-25T04:00:37.201Z,34.74
2022-12-25T04:03:22.541Z,34.78
2022-12-25T04:06:09.412Z,35.05
2022-12-25T04:08:54.753Z,35.14
2022-12-25T04:11:39.962Z,34.81
2022-12-25T04:14:25.211Z,35.26
2022-12-25T04:17:10.497Z,35.22
2022-12-25T04:19:55.808Z,35.26
2022-12-25T04:22:43.012Z,35.32
2022-12-25T04:25:28.403Z,34.96
2022-12-25T04:28:19.665Z,34.86
2022-12-25T04:31:05.694Z,35.09
2022-12-25T04:33:52.363Z,35.26
2022-12-25T04:36:20.244Z,34.83
2022-12-25T04:38:49.495Z,34.78
2022-12-25T04:41:17.400Z,34.84
2022-12-25T04:43:45.576Z,34.80
2022-12-25T04:46:13.468Z,34.79
2022-12-25T04:48:41.401Z,35.21
2022-12-25T04:51:16.284Z,35.16
2022-12-25T04:53:44.484Z,35.33
2022-12-25T04:56:13.992Z,35.26
2022-12-25T04:58:41.850Z,34.77
2022-12-25T05:01:09.807Z,35.32
2022-12-25T05:03:38.049Z,34.95
2022-12-25T05:06:06.278Z,34.94
2022-12-25T05:08:34.690Z,35.20
2022-12-25T05:11:05.923Z,35.19
2022-12-25T05:13:35.504Z,34.69
2022-12-25T05:16:06.580Z,35.06
2022-12-25T05:18:34.546Z,34.95
2022-12-25T05:21:02.995Z,35.22
2022-12-25T05:23:31.187Z,35.07
2022-12-25T05:25:59.654Z,34.77
2022-12-25T05:28:27.544Z,35.35
2022-12-25T05:30:58.846Z,35.04
2022-12-25T05:33:27.093Z,35.28
2022-12-25T05:35:54.998Z,34.83
2022-12-25T05:38:22.893Z,35.25
2022-12-25T05:40:52.355Z,35.16
2022-12-25T05:43:20.555Z,35.09
2022-12-25T05:45:48.420Z,35.05
2022-12-25T05:48:17.690Z,35.27
2022-12-25T05:50:45.663Z,35.04
2022-12-25T05:53:14.360Z,34.71
2022-12-25T05:55:43.863Z,35.18
2022-12-25T05:58:12.107Z,34.89
2022-12-25T06:00:40.040Z,34.73
2022-12-25T06:03:08.291Z,34.99
2022-12-25T06:05:39.283Z,34.82
2022-12-25T06:08:07.578Z,35.20
2022-12-25T06:10:35.439Z,34.79
2022-12-25T06:13:03.788Z,35.23
2022-12-25T06:15:31.687Z,34.97
2022-12-25T06:18:01.475Z,34.83
2022-12-25T06:20:29.369Z,35.03
2022-12-25T06:22:58.666Z,35.16
2022-12-25T06:25:26.573Z,35.22
2022-12-25T06:27:54.518Z,35.26
2022-12-25T06:30:22.427Z,34.87
2022-12-25T06:32:50.605Z,34.86
2022-12-25T06:35:18.864Z,35.11
2022-12-25T06:37:46.873Z,35.14
2022-12-25T06:40:16.397Z,35.11
2022-12-25T06:42:44.582Z,35.27
2022-12-25T06:45:12.699Z,35.28
2022-12-25T06:47:40.579Z,34.99
2022-12-25T06:50:09.302Z,35.03
2022-12-25T06:52:37.460Z,34.82
2022-12-25T06:55:05.768Z,35.04
2022-12-25T06:57:35.244Z,35.05
2022-12-25T07:00:03.541Z,34.75
2022-12-25T07:02:31.454Z,34.87
2022-12-25T07:04:59.728Z,35.09
2022-12-25T07:07:27.585Z,35.02
2022-12-25T07:09:55.479Z,35.30
2022-12-25T07:12:24.334Z,35.01
2022-12-25T07:14:54.811Z,35.10
2022-12-25T07:17:22.758Z,34.80
2022-12-25T07:19:50.737Z,34.96
2022-12-25T07:22:18.628Z,34.77
2022-12-25T07:24:46.858Z,34.81
2022-12-25T07:27:14.779Z,34.82
2022-12-25T07:29:42.668Z,34.71
2022-12-25T07:32:12.029Z,35.04
2022-12-25T07:34:40.285Z,35.10
2022-12-25T07:37:08.271Z,35.22
2022-12-25T07:39:36.173Z,35.05
2022-12-25T07:42:04.146Z,35.05
2022-12-25T07:44:32.310Z,35.26
2022-12-25T07:47:00.249Z,34.83
2022-12-25T07:49:29.552Z,34.89
2022-12-25T07:51:57.441Z,34.99
2022-12-25T07:54:25.643Z,35.12
2022-12-25T07:56:53.604Z,35.00
2022-12-25T07:59:21.629Z,35.19
2022-12-25T08:01:50.607Z,35.18
2022-12-25T08:04:19.145Z,35.12
2022-12-25T08:06:48.538Z,34.95
2022-12-25T08:09:16.424Z,34.93
2022-12-25T08:11:46.193Z,34.99
2022-12-25T08:14:14.482Z,35.14
2022-12-25T08:16:42.429Z,35.34
2022-12-25T08:19:10.476Z,34.85
2022-12-25T08:21:38.711Z,35.04
2022-12-25T08:24:08.377Z,35.21
2022-12-25T08:26:36.266Z,34.83
2022-12-25T08:29:04.152Z,34.93
2022-12-25T08:31:33.392Z,35.24
2022-12-25T08:34:03.029Z,35.17
2022-12-25T08:36:31.064Z,34.86
2022-12-25T08:39:03.038Z,35.11
2022-12-25T08:41:32.846Z,35.28
2022-12-25T08:44:01.006Z,35.05
2022-12-25T08:46:28.980Z,34.96
2022-12-25T08:48:57.580Z,35.33
2022-12-25T08:51:26.224Z,35.12
2022-12-25T08:53:54.805Z,34.94
2022-12-25T08:56:22.845Z,35.07
2022-12-25T08:58:52.137Z,35.06
2022-12-25T09:01:20.214Z,35.21
2022-12-25T09:03:48.648Z,35.16
2022-12-25T09:06:17.067Z,34.89
2022-12-25T09:08:49.116Z,34.94
2022-12-25T09:11:18.101Z,35.36
2022-12-25T09:13:46.232Z,35.39
2022-12-25T09:16:16.721Z,35.25
2022-12-25T09:18:44.673Z,34.93
2022-12-25T09:21:13.509Z,35.08
2022-12-25T09:23:41.735Z,35.23
2022-12-25T09:26:11.364Z,35.36
2022-12-25T09:28:39.214Z,35.24
2022-12-25T09:31:07.438Z,35.49
2022-12-25T09:33:37.079Z,35.11
2022-12-25T09:36:06.695Z,35.37
2022-12-25T09:38:35.148Z,35.14
2022-12-25T09:41:03.807Z,35.41
2022-12-25T09:43:34.630Z,35.26
2022-12-25T09:46:02.533Z,35.05
2022-12-25T09:48:30.775Z,35.24
2022-12-25T09:51:02.539Z,35.32
2022-12-25T09:53:33.531Z,35.21
2022-12-25T09:56:05.227Z,35.42
2022-12-25T09:58:33.167Z,35.00
2022-12-25T10:01:09.489Z,35.45
2022-12-25T10:03:48.955Z,35.22
2022-12-25T10:06:20.103Z,35.18
2022-12-25T10:09:17.563Z,35.19
2022-12-25T10:11:56.689Z,34.93
2022-12-25T10:14:28.134Z,35.14
2022-12-25T10:17:02.568Z,35.07
2022-12-25T10:19:38.634Z,35.14
2022-12-25T10:22:12.791Z,34.97
2022-12-25T10:24:44.046Z,34.95
2022-12-25T10:27:14.979Z,35.38
2022-12-25T10:29:42.905Z,35.22
2022-12-25T10:32:10.827Z,35.50
2022-12-25T10:34:39.272Z,35.40
2022-12-25T10:37:07.205Z,35.17
2022-12-25T10:39:39.705Z,35.16
2022-12-25T10:42:22.733Z,35.08
2022-12-25T10:44:58.161Z,35.04
2022-12-25T10:47:27.180Z,35.35
2022-12-25T10:49:55.038Z,34.94
2022-12-25T10:52:24.033Z,35.49
2022-12-25T10:54:53.735Z,35.17
2022-12-25T10:57:22.730Z,35.00
2022-12-25T10:59:51.572Z,35.46
2022-12-25T11:02:22.714Z,35.41
2022-12-25T11:04:51.067Z,35.47
2022-12-25T11:07:23.883Z,35.54
2022-12-25T11:09:55.447Z,35.09
2022-12-25T11:12:28.349Z,35.46
2022-12-25T11:14:58.052Z,35.01
2022-12-25T11:17:26.599Z,35.32
2022-12-25T11:19:55.115Z,35.11
2022-12-25T11:22:23.152Z,35.05
2022-12-25T11:24:52.913Z,35.37
2022-12-25T11:27:23.558Z,35.20
2022-12-25T11:29:52.390Z,35.43
2022-12-25T11:32:21.938Z,35.37
2022-12-25T11:34:50.215Z,35.58
2022-12-25T11:37:20.166Z,35.34
2022-12-25T11:39:48.086Z,35.58
2022-12-25T11:42:19.385Z,35.22
2022-12-25T11:44:50.841Z,35.31
2022-12-25T11:47:20.590Z,35.70
2022-12-25T11:49:52.175Z,35.25
2022-12-25T11:52:22.836Z,35.67
2022-12-25T11:54:54.611Z,35.59
2022-12-25T11:57:24.398Z,35.03
2022-12-25T11:59:55.949Z,35.37
2022-12-25T12:02:28.272Z,35.78
2022-12-25T12:05:02.936Z,35.44
2022-12-25T12:07:31.344Z,35.56
2022-12-25T12:10:01.884Z,35.56
2022-12-25T12:12:34.468Z,35.14
2022-12-25T12:15:08.632Z,35.25
2022-12-25T12:17:36.599Z,35.21
2022-12-25T12:20:12.930Z,35.20
2022-12-25T12:22:40.846Z,35.29
2022-12-25T12:25:09.495Z,35.11
2022-12-25T12:27:39.581Z,35.66
2022-12-25T12:30:09.807Z,35.56
2022-12-25T12:32:40.297Z,35.26
2022-12-25T12:35:17.211Z,35.31
2022-12-25T12:37:45.958Z,35.20
2022-12-25T12:40:26.534Z,35.56
2022-12-25T12:42:55.785Z,35.74
2022-12-25T12:45:26.495Z,35.64
2022-12-25T12:47:54.686Z,35.53
2022-12-25T12:50:30.805Z,35.16
2022-12-25T12:52:59.194Z,35.25
2022-12-25T12:55:31.223Z,35.40
2022-12-25T12:58:01.375Z,35.46
2022-12-25T13:00:34.013Z,35.70
2022-12-25T13:03:20.318Z,35.61
2022-12-25T13:05:50.006Z,35.42
2022-12-25T13:08:27.263Z,35.40
2022-12-25T13:11:06.848Z,35.47
2022-12-25T13:13:37.167Z,35.38
2022-12-25T13:16:05.347Z,35.57
2022-12-25T13:18:33.383Z,35.27
2022-12-25T13:21:02.090Z,35.58
2022-12-25T13:23:32.384Z,35.63
2022-12-25T13:26:01.199Z,35.42
2022-12-25T13:28:29.841Z,35.10
2022-12-25T13:31:06.954Z,35.40
2022-12-25T13:33:35.265Z,35.33
2022-12-25T13:36:04.238Z,35.43
2022-12-25T13:38:32.215Z,35.66
2022-12-25T13:41:17.778Z,35.60
2022-12-25T13:43:45.729Z,35.39
2022-12-25T13:46:15.501Z,35.22
2022-12-25T13:48:43.694Z,35.58
2022-12-25T13:51:15.730Z,35.48
2022-12-25T13:53:44.257Z,35.22
2022-12-25T13:56:14.735Z,35.22
2022-12-25T13:58:42.647Z,35.32
2022-12-25T14:01:11.764Z,35.53
2022-12-25T14:03:43.655Z,35.48
2022-12-25T14:06:18.642Z,35.03
2022-12-25T14:08:46.563Z,35.11
2022-12-25T14:11:16.086Z,35.65
2022-12-25T14:13:44.846Z,35.36
2022-12-25T14:16:12.759Z,35.26
2022-12-25T14:18:53.101Z,35.71
2022-12-25T14:21:30.065Z,35.14
2022-12-25T14:24:00.011Z,35.58
2022-12-25T14:26:29.282Z,35.43
2022-12-25T14:29:02.901Z,35.64
2022-12-25T14:31:30.815Z,35.20
2022-12-25T14:34:00.759Z,35.08
2022-12-25T14:36:28.790Z,35.33
2022-12-25T14:38:58.573Z,35.22
2022-12-25T14:41:38.388Z,35.56
2022-12-25T14:44:10.815Z,35.56
2022-12-25T14:46:40.332Z,35.71
2022-12-25T14:49:25.875Z,35.06
2022-12-25T14:51:55.277Z,35.41
2022-12-25T14:54:25.816Z,35.47
2022-12-25T14:56:56.115Z,35.21
2022-12-25T14:59:26.288Z,35.39
2022-12-25T15:01:59.456Z,35.21
2022-12-25T15:04:31.505Z,35.72
2022-12-25T15:07:00.626Z,35.40
2022-12-25T15:09:31.135Z,35.60
2022-12-25T15:11:59.315Z,35.26
2022-12-25T15:14:30.106Z,35.43
2022-12-25T15:16:58.860Z,35.28
2022-12-25T15:19:36.592Z,35.58
2022-12-25T15:22:06.338Z,35.17
2022-12-25T15:24:34.683Z,35.62
2022-12-25T15:27:02.563Z,35.33
2022-12-25T15:30:08.700Z,35.29
2022-12-25T15:32:27.446Z,35.50
2022-12-25T15:34:58.349Z,35.25
2022-12-25T15:37:26.858Z,35.25
2022-12-25T15:39:57.387Z,35.63
2022-12-25T15:42:25.794Z,35.17
2022-12-25T15:44:54.031Z,35.57
2022-12-25T15:47:23.240Z,35.32
2022-12-25T15:49:52.500Z,35.57
2022-12-25T15:52:21.836Z,35.57
2022-12-25T15:54:52.193Z,35.26
2022-12-25T15:57:21.677Z,35.52
2022-12-25T15:59:54.410Z,35.76
2022-12-25T16:02:29.677Z,35.37
2022-12-25T16:04:57.671Z,35.69
2022-12-25T16:07:27.752Z,35.43
2022-12-25T16:09:55.593Z,35.50
2022-12-25T16:12:53.162Z,35.40
2022-12-25T16:15:22.613Z,35.32
2022-12-25T16:17:50.992Z,35.61
2022-12-25T16:20:18.888Z,35.26
2022-12-25T16:22:49.261Z,35.51
2022-12-25T16:25:18.664Z,35.32
2022-12-25T16:27:47.035Z,35.38
2022-12-25T16:30:19.008Z,35.62
2022-12-25T16:32:52.761Z,35.39
2022-12-25T16:35:21.241Z,35.75
2022-12-25T16:37:50.548Z,35.68
2022-12-25T16:40:18.457Z,35.46
2022-12-25T16:42:58.863Z,35.39
2022-12-25T16:45:26.743Z,35.51
2022-12-25T16:47:55.061Z,35.73
2022-12-25T16:50:23.156Z,35.40
2022-12-25T16:52:54.039Z,35.84
2022-12-25T16:55:29.867Z,35.68
2022-12-25T16:57:58.605Z,35.56
2022-12-25T17:00:29.734Z,35.39
2022-12-25T17:02:59.199Z,35.37
2022-12-25T17:05:28.262Z,35.31
2022-12-25T17:08:00.434Z,35.84
2022-12-25T17:10:28.344Z,35.28
2022-12-25T17:12:56.241Z,35.35
2022-12-25T17:15:24.141Z,35.92
2022-12-25T17:17:52.016Z,35.60
2022-12-25T17:20:25.128Z,35.74
2022-12-25T17:23:00.449Z,35.63
2022-12-25T17:25:29.725Z,35.77
2022-12-25T17:27:59.702Z,35.59
2022-12-25T17:30:27.579Z,35.49
2022-12-25T17:33:00.167Z,35.75
2022-12-25T17:35:34.023Z,35.76
2022-12-25T17:38:10.249Z,35.43
2022-12-25T17:40:40.672Z,35.83
2022-12-25T17:43:08.567Z,35.28
2022-12-25T17:45:37.766Z,35.76
2022-12-25T17:48:06.586Z,35.30
2022-12-25T17:50:40.873Z,35.81
2022-12-25T17:53:09.245Z,35.88
2022-12-25T17:55:41.181Z,35.41
2022-12-25T17:58:10.166Z,35.66
2022-12-25T18:00:38.152Z,35.99
2022-12-25T18:03:11.700Z,35.79
2022-12-25T18:05:40.566Z,35.54
2022-12-25T18:08:08.448Z,35.64
2022-12-25T18:10:37.800Z,35.73
2022-12-25T18:13:07.182Z,35.55
2022-12-25T18:15:37.640Z,35.63
2022-12-25T18:18:05.991Z,35.73
2022-12-25T18:20:39.568Z,35.85
2022-12-25T18:23:08.235Z,35.91
2022-12-25T18:25:40.704Z,35.53
2022-12-25T18:28:11.074Z,35.78
2022-12-25T18:30:40.988Z,35.44
2022-12-25T18:33:08.876Z,35.78
2022-12-25T18:35:39.064Z,35.31
2022-12-25T18:38:06.983Z,35.48
2022-12-25T18:40:34.923Z,35.88
2022-12-25T18:43:03.671Z,35.74
2022-12-25T18:45:33.501Z,35.32
2022-12-25T18:48:03.225Z,35.54
2022-12-25T18:50:31.106Z,35.66
2022-12-25T18:52:58.989Z,35.66
2022-12-25T18:55:27.290Z,35.84
2022-12-25T18:57:55.178Z,35.36
2022-12-25T19:00:23.298Z,35.91
2022-12-25T19:02:53.211Z,35.59
2022-12-25T19:05:21.677Z,35.75
2022-12-25T19:07:49.562Z,35.39
2022-12-25T19:10:17.508Z,35.72
2022-12-25T19:12:45.416Z,35.85
2022-12-25T19:15:13.570Z,35.62
2022-12-25T19:17:41.566Z,35.55
2022-12-25T19:20:12.329Z,35.61
2022-12-25T19:22:40.176Z,35.83
2022-12-25T19:25:09.479Z,35.54
2022-12-25T19:27:37.348Z,35.47
2022-12-25T19:30:07.581Z,35.42
2022-12-25T19:32:51.042Z,35.62
2022-12-25T19:35:27.608Z,35.55
2022-12-25T19:37:55.586Z,35.79
2022-12-25T19:40:26.598Z,35.86
2022-12-25T19:42:54.500Z,35.64
2022-12-25T19:45:26.074Z,35.50
2022-12-25T19:47:56.528Z,35.80
2022-12-25T19:50:28.460Z,35.48
2022-12-25T19:52:56.386Z,35.72
2022-12-25T19:55:24.602Z,35.48
2022-12-25T19:57:52.586Z,35.83
2022-12-25T20:00:20.718Z,35.62
2022-12-25T20:02:48.730Z,35.95
2022-12-25T20:05:17.160Z,35.89
2022-12-25T20:07:48.919Z,35.61
2022-12-25T20:10:19.188Z,35.66
2022-12-25T20:12:47.561Z,35.94
2022-12-25T20:15:18.588Z,35.37
2022-12-25T20:17:47.633Z,35.47
2022-12-25T20:20:15.574Z,35.52
2022-12-25T20:22:46.101Z,35.89
2022-12-25T20:25:17.797Z,35.88
2022-12-25T20:27:46.030Z,35.91
2022-12-25T20:30:15.545Z,35.70
2022-12-25T20:32:50.402Z,36.05
2022-12-25T20:35:20.118Z,35.41
2022-12-25T20:37:49.453Z,35.71
2022-12-25T20:40:17.492Z,35.82
2022-12-25T20:42:45.841Z,36.03
2022-12-25T20:45:18.931Z,35.65
2022-12-25T20:47:49.995Z,35.69
2022-12-25T20:50:19.940Z,35.72
2022-12-25T20:52:49.216Z,35.49
2022-12-25T20:55:17.482Z,35.92
2022-12-25T20:57:45.362Z,35.58
2022-12-25T21:00:14.585Z,35.77
2022-12-25T21:02:43.146Z,35.59
2022-12-25T21:05:12.471Z,35.36
2022-12-25T21:07:40.393Z,35.74
2022-12-25T21:10:10.561Z,35.66
2022-12-25T21:12:38.472Z,35.74
2022-12-25T21:15:14.939Z,35.79
2022-12-25T21:17:43.490Z,35.77
2022-12-25T21:20:12.104Z,35.57
2022-12-25T21:22:39.989Z,35.50
2022-12-25T21:25:10.341Z,35.48
2022-12-25T21:27:38.236Z,35.56
2022-12-25T21:30:17.651Z,35.78
2022-12-25T21:33:02.853Z,35.72
2022-12-25T21:35:30.764Z,36.01
2022-12-25T21:37:58.682Z,35.50
2022-12-25T21:40:28.078Z,36.00
2022-12-25T21:42:55.934Z,35.38
2022-12-25T21:45:24.051Z,35.82
2022-12-25T21:48:01.830Z,35.83
2022-12-25T21:50:48.621Z,35.76
2022-12-25T21:53:16.883Z,35.80
2022-12-25T21:55:55.952Z,36.04
2022-12-25T21:58:23.949Z,35.72
2022-12-25T22:00:52.047Z,35.63
2022-12-25T22:03:20.103Z,35.87
2022-12-25T22:06:05.868Z,35.89
2022-12-25T22:08:33.828Z,36.00
2022-12-25T22:11:05.052Z,35.60
2022-12-25T22:13:50.855Z,35.62
2022-12-25T22:16:36.293Z,35.50
2022-12-25T22:19:21.387Z,35.92
2022-12-25T22:21:49.267Z,35.56
2022-12-25T22:24:17.221Z,35.83
2022-12-25T22:26:46.799Z,35.68
2022-12-25T22:29:14.663Z,36.05
2022-12-25T22:31:46.712Z,36.07
2022-12-25T22:34:16.378Z,36.11
2022-12-25T22:36:44.352Z,35.49
2022-12-25T22:39:12.225Z,35.72
2022-12-25T22:41:40.130Z,35.49
2022-12-25T22:44:18.086Z,35.51
2022-12-25T22:46:46.729Z,35.96
2022-12-25T22:49:15.907Z,35.56
2022-12-25T22:51:43.884Z,35.63
2022-12-25T22:54:13.172Z,35.50
2022-12-25T22:56:41.310Z,36.01
2022-12-25T22:59:10.603Z,36.06
2022-12-25T23:01:38.661Z,35.82
2022-12-25T23:04:07.288Z,35.95
2022-12-25T23:06:35.548Z,35.75
2022-12-25T23:09:03.471Z,35.55
2022-12-25T23:11:31.473Z,35.80
2022-12-25T23:14:17.136Z,35.93
2022-12-25T23:16:46.428Z,35.84
2022-12-25T23:19:32.208Z,35.65
2022-12-25T23:22:22.883Z,35.86
2022-12-25T23:25:08.325Z,35.62
2022-12-25T23:27:38.540Z,36.15
2022-12-25T23:30:08.865Z,35.64
2022-12-25T23:32:38.184Z,35.82
2022-12-25T23:35:07.416Z,36.05
2022-12-25T23:37:35.534Z,35.58
2022-12-25T23:40:03.454Z,35.92
2022-12-25T23:42:31.328Z,35.76
2022-12-25T23:44:59.484Z,36.02
2022-12-25T23:47:27.489Z,36.13
2022-12-25T23:49:56.779Z,35.77
2022-12-25T23:52:25.010Z,36.04
2022-12-25T23:54:53.262Z,35.91
2022-12-25T23:57:21.122Z,35.96
2022-12-25T23:59:49.142Z,36.10
